Coral — UBKJ — position and weather

sailwx.info

Track history (hours):
 
Tides and Currents Weather Stations Pressure Air Temp Water Temp Dewpoint Dewpoint Depression Visibility Wind Speed Wind Dir Waves Ship Positions

Coral

Last reported at 2018-Jul-11 03:36 UTC. Time now 2018-Jul-21 11:28 UTC.
Position N 45°31' E 036°48'.
Warning: this ship's position is 10 days out of date.

Length 108 m; draft 3 m.

Type: Ship. MMSI: 273427610.

Date/timePositionNaut miles runAvg speedWind from/ knotsBaromVisibWave heightAir tempDewpointWater temp
2018-Jul-11 03:36N 45°31' E 036°48'2 8.8
2018-Jul-11 03:26N 45°29' E 036°47'4 8.4
2018-Jul-11 03:00N 45°26' E 036°44'4 8.4
2018-Jul-11 02:30N 45°23' E 036°40'3 6.7
2018-Jul-11 02:00N 45°20' E 036°38'7 6.4
2018-Jul-11 00:57N 45°17' E 036°29'307 7.5
2018-Jul-09 08:12N 44°06' E 029°30'2 8.5
2018-Jul-09 07:56N 44°06' E 029°27'4 8.6
2018-Jul-09 07:28N 44°05' E 029°21'4 8.3
2018-Jul-09 07:01N 44°05' E 029°16'4 8.4
2018-Jul-09 06:30N 44°05' E 029°10'4 8.4
2018-Jul-09 06:00N 44°05' E 029°04'4 8.5
2018-Jul-09 05:31N 44°06' E 028°58'4 8.4
2018-Jul-09 05:01N 44°05' E 028°52'4 8.5
2018-Jul-09 04:30N 44°05' E 028°46'4 7.7
2018-Jul-09 04:01N 44°07' E 028°41'3 5.4
2018-Jul-09 03:31N 44°09' E 028°39'0 0.0
2018-Jul-09 03:01N 44°09' E 028°39'0 0.0
2018-Jul-09 02:30N 44°09' E 028°39'0 0.0
2018-Jul-09 02:00N 44°09' E 028°39'0 0.0
2018-Jul-09 01:31N 44°09' E 028°39'0 0.0
2018-Jul-09 01:00N 44°09' E 028°39'0 0.0
2018-Jul-09 00:30N 44°09' E 028°39'0 0.0
2018-Jul-08 23:59N 44°09' E 028°39'0 0.0
2018-Jul-08 23:29N 44°09' E 028°39'0 0.0
2018-Jul-08 22:59N 44°09' E 028°39'0 0.0
2018-Jul-08 22:29N 44°09' E 028°39'0 0.0
2018-Jul-08 21:53N 44°09' E 028°39'0 0.0
2018-Jul-08 21:29N 44°09' E 028°39'0 0.0
2018-Jul-08 20:59N 44°09' E 028°39'0 0.0
2018-Jul-08 20:29N 44°09' E 028°39'0 0.0
2018-Jul-08 19:59N 44°09' E 028°39'0 0.0
2018-Jul-08 19:29N 44°09' E 028°39'0 0.0
2018-Jul-08 18:59N 44°09' E 028°39'0 0.0
2018-Jul-08 18:29N 44°09' E 028°39'0 0.0
2018-Jul-08 17:59N 44°09' E 028°39'0 0.0
2018-Jul-08 17:29N 44°09' E 028°39'0 0.0
2018-Jul-08 16:59N 44°09' E 028°39'0 0.0
2018-Jul-08 16:29N 44°09' E 028°39'0 0.0
2018-Jul-08 15:59N 44°09' E 028°39'0 0.0
2018-Jul-08 15:29N 44°09' E 028°39'0 0.0
2018-Jul-08 14:59N 44°09' E 028°39'0 0.0
2018-Jul-08 14:29N 44°09' E 028°39'0 0.0
2018-Jul-08 13:59N 44°09' E 028°39'0 0.0
2018-Jul-08 13:29N 44°09' E 028°39'0 0.0
2018-Jul-08 12:56N 44°09' E 028°39'0 0.0
2018-Jul-08 12:29N 44°09' E 028°39'0 0.0
2018-Jul-08 11:59N 44°09' E 028°39'0 0.0
2018-Jul-08 11:29N 44°09' E 028°39'0 0.0
2018-Jul-08 10:59N 44°09' E 028°39'0 0.0
2018-Jul-08 10:26N 44°09' E 028°39'0 0.0
2018-Jul-08 09:59N 44°09' E 028°39'0 0.0
2018-Jul-08 09:29N 44°09' E 028°39'0 0.0
2018-Jul-08 08:59N 44°09' E 028°39'0 0.0
2018-Jul-08 08:29N 44°09' E 028°39'0 0.0
2018-Jul-08 07:59N 44°09' E 028°39'0 0.0
2018-Jul-08 07:29N 44°09' E 028°39'0 0.0
2018-Jul-08 06:59N 44°09' E 028°39'0 0.0
2018-Jul-08 06:29N 44°09' E 028°39'0 0.0
2018-Jul-08 05:59N 44°09' E 028°39'0 0.0
2018-Jul-08 05:29N 44°09' E 028°39'0 0.0
2018-Jul-08 04:59N 44°09' E 028°39'0 0.0
2018-Jul-08 04:29N 44°09' E 028°39'0 0.0
2018-Jul-08 03:56N 44°09' E 028°39'0 0.0
2018-Jul-08 03:29N 44°09' E 028°39'0 0.0
2018-Jul-08 02:59N 44°09' E 028°39'0 0.0
2018-Jul-08 02:29N 44°09' E 028°39'0 0.0
2018-Jul-08 01:59N 44°09' E 028°39'0 0.0
2018-Jul-08 01:29N 44°09' E 028°39'0 0.0
2018-Jul-08 00:59N 44°09' E 028°39'0 0.0
2018-Jul-08 00:29N 44°09' E 028°39'0 0.0
2018-Jul-07 23:59N 44°09' E 028°39'0 0.0
2018-Jul-07 23:29N 44°09' E 028°39'0 0.0
2018-Jul-07 22:59N 44°09' E 028°39'0 0.0
2018-Jul-07 22:29N 44°09' E 028°39'0 0.0
2018-Jul-07 21:59N 44°09' E 028°39'0 0.0
2018-Jul-07 21:29N 44°09' E 028°39'0 0.0
2018-Jul-07 20:59N 44°09' E 028°39'0 0.0
2018-Jul-07 20:29N 44°09' E 028°39'0 0.0
2018-Jul-07 19:59N 44°09' E 028°39'0 0.0
2018-Jul-07 19:29N 44°09' E 028°39'0 0.0
2018-Jul-07 18:59N 44°09' E 028°39'0 0.0
2018-Jul-07 18:29N 44°09' E 028°39'0 0.0
2018-Jul-07 17:59N 44°09' E 028°39'0 0.0
2018-Jul-07 17:29N 44°09' E 028°39'0 0.0
2018-Jul-07 16:59N 44°09' E 028°39'0 0.0
2018-Jul-07 16:29N 44°09' E 028°39'0 0.0
2018-Jul-07 15:59N 44°09' E 028°39'0 0.0
2018-Jul-07 15:29N 44°09' E 028°39'0 0.0
2018-Jul-07 14:59N 44°09' E 028°39'0 0.0
2018-Jul-07 14:29N 44°09' E 028°39'0 0.0
2018-Jul-07 13:59N 44°09' E 028°39'0 0.0
2018-Jul-07 13:28N 44°09' E 028°39'0 0.0
2018-Jul-07 12:59N 44°09' E 028°39'0 0.0
2018-Jul-07 12:28N 44°09' E 028°39'0 0.0
2018-Jul-07 11:58N 44°09' E 028°39'0 0.0
2018-Jul-07 11:28N 44°09' E 028°39'0 0.0
2018-Jul-07 10:58N 44°09' E 028°39'0 0.0
2018-Jul-07 10:29N 44°09' E 028°39'0 0.0
2018-Jul-07 09:58N 44°09' E 028°39'0 0.0
2018-Jul-07 09:28N 44°09' E 028°39'0 0.0
2018-Jul-07 08:59N 44°09' E 028°39'0 0.0
2018-Jul-07 08:29N 44°09' E 028°39'0 0.0
2018-Jul-07 07:59N 44°09' E 028°39'0 0.0
2018-Jul-07 07:28N 44°09' E 028°39'0 0.0
2018-Jul-07 06:58N 44°09' E 028°39'0 0.0
2018-Jul-07 06:28N 44°09' E 028°39'0 0.0
2018-Jul-07 05:59N 44°09' E 028°39'0 0.0
2018-Jul-07 05:25N 44°09' E 028°39'0 0.0
2018-Jul-07 04:58N 44°09' E 028°39'0 0.0
2018-Jul-07 04:29N 44°09' E 028°39'0 0.0
2018-Jul-07 03:59N 44°09' E 028°39'0 0.0
2018-Jul-07 03:29N 44°09' E 028°39'0 0.0
2018-Jul-07 02:58N 44°09' E 028°39'0 0.0
2018-Jul-07 02:29N 44°09' E 028°39'0 0.0
2018-Jul-07 01:58N 44°09' E 028°39'0 0.0
2018-Jul-07 01:28N 44°09' E 028°39'0 0.0
2018-Jul-07 00:59N 44°09' E 028°39'0 0.0
2018-Jul-07 00:29N 44°09' E 028°39'0 0.0
2018-Jul-06 23:58N 44°09' E 028°39'0 0.0
2018-Jul-06 23:28N 44°09' E 028°39'0 0.0
2018-Jul-06 22:58N 44°09' E 028°39'0 0.0
2018-Jul-06 22:28N 44°09' E 028°39'0 0.0
2018-Jul-06 21:59N 44°09' E 028°39'0 0.0
2018-Jul-06 21:29N 44°09' E 028°39'0 0.0
2018-Jul-06 20:58N 44°09' E 028°39'0 0.0
2018-Jul-06 20:28N 44°09' E 028°39'0 0.0
2018-Jul-06 19:58N 44°09' E 028°39'0 0.0
2018-Jul-06 19:29N 44°09' E 028°39'0 0.0
2018-Jul-06 18:59N 44°09' E 028°39'0 0.0
2018-Jul-06 18:29N 44°09' E 028°39'0 0.0
2018-Jul-06 17:59N 44°09' E 028°39'0 0.0
2018-Jul-06 17:29N 44°09' E 028°39'0 0.0
2018-Jul-06 16:59N 44°09' E 028°39'0 0.0
2018-Jul-06 16:29N 44°09' E 028°39'0 0.0
2018-Jul-06 15:59N 44°09' E 028°39'0 0.0
2018-Jul-06 15:29N 44°09' E 028°39'0 0.0
2018-Jul-06 14:58N 44°09' E 028°39'0 0.0
2018-Jul-06 14:29N 44°09' E 028°39'0 0.0
2018-Jul-06 13:58N 44°09' E 028°39'0 0.0
2018-Jul-06 13:29N 44°09' E 028°39'0 0.0
2018-Jul-06 12:58N 44°09' E 028°39'0 0.0
2018-Jul-06 12:28N 44°09' E 028°39'0 0.0
2018-Jul-06 11:59N 44°09' E 028°39'0 0.0
2018-Jul-06 11:29N 44°09' E 028°39'0 0.0
2018-Jul-06 10:58N 44°09' E 028°39'0 0.0
2018-Jul-06 10:29N 44°09' E 028°39'0 0.0
2018-Jul-06 09:59N 44°09' E 028°39'0 0.0
2018-Jul-06 09:29N 44°09' E 028°39'0 0.0
2018-Jul-06 08:58N 44°09' E 028°39'0 0.0
2018-Jul-06 08:29N 44°09' E 028°39'0 0.0
2018-Jul-06 07:59N 44°09' E 028°39'0 0.0
2018-Jul-06 07:29N 44°09' E 028°39'0 0.0
2018-Jul-06 06:59N 44°09' E 028°39'0 0.0
2018-Jul-06 06:29N 44°09' E 028°39'0 0.0
2018-Jul-06 05:58N 44°09' E 028°39'0 0.0
2018-Jul-06 05:25N 44°09' E 028°39'0 0.0
2018-Jul-06 04:58N 44°09' E 028°39'0 0.0
2018-Jul-06 04:29N 44°09' E 028°39'0 0.0
2018-Jul-06 03:59N 44°09' E 028°39'0 0.0
2018-Jul-06 03:29N 44°09' E 028°39'0 0.0
2018-Jul-06 02:59N 44°09' E 028°39'0 0.0
2018-Jul-06 02:29N 44°09' E 028°39'0 0.0
2018-Jul-06 01:58N 44°09' E 028°39'0 0.0
2018-Jul-06 01:29N 44°09' E 028°39'0 0.0
2018-Jul-06 00:59N 44°09' E 028°39'0 0.0
2018-Jul-06 00:29N 44°09' E 028°39'0 0.0
2018-Jul-05 23:58N 44°09' E 028°39'0 0.0
2018-Jul-05 23:29N 44°09' E 028°39'0 0.0
2018-Jul-05 22:58N 44°09' E 028°39'0 0.0
2018-Jul-05 22:28N 44°09' E 028°39'0 0.0
2018-Jul-05 21:59N 44°09' E 028°39'0 0.0
2018-Jul-05 21:29N 44°09' E 028°39'0 0.0
2018-Jul-05 20:58N 44°09' E 028°39'0 0.0
2018-Jul-05 20:29N 44°09' E 028°39'0 0.0
2018-Jul-05 19:59N 44°09' E 028°39'0 0.0
2018-Jul-05 19:29N 44°09' E 028°39'0 0.0
2018-Jul-05 18:59N 44°09' E 028°39'0 0.0
2018-Jul-05 18:29N 44°09' E 028°39'0 0.0
2018-Jul-05 17:58N 44°09' E 028°39'0 0.0
2018-Jul-05 17:29N 44°09' E 028°39'0 0.0
2018-Jul-05 16:59N 44°09' E 028°39'0 0.0
2018-Jul-05 16:28N 44°09' E 028°39'0 0.0
2018-Jul-05 15:59N 44°09' E 028°39'0 0.0
2018-Jul-05 15:28N 44°09' E 028°39'0 0.0
2018-Jul-05 14:59N 44°09' E 028°39'0 0.0
2018-Jul-05 14:29N 44°09' E 028°39'0 0.0
2018-Jul-05 13:29N 44°09' E 028°39'0 0.0
2018-Jul-05 12:58N 44°09' E 028°39'1 1.8
2018-Jul-05 12:30N 44°09' E 028°40'4 7.8
2018-Jul-05 12:00N 44°06' E 028°43'2 3.9
2018-Jul-05 11:30N 44°06' E 028°46'0 0.9
2018-Jul-05 11:00N 44°05' E 028°45'1 2.6
2018-Jul-05 10:30N 44°07' E 028°44'1 2.3
2018-Jul-05 10:00N 44°08' E 028°44'1 2.2
2018-Jul-05 09:29N 44°08' E 028°45'4 7.5
2018-Jul-05 09:00N 44°06' E 028°49'5 9.2
2018-Jul-05 08:30N 44°04' E 028°56'1 1.9
2018-Jul-05 08:00N 44°03' E 028°56'0 0.8
2018-Jul-05 07:30N 44°03' E 028°57'0 0.8
2018-Jul-05 07:00N 44°03' E 028°57'0 0.7
2018-Jul-05 06:31N 44°02' E 028°56'2 4.4
2018-Jul-05 06:01N 44°02' E 028°53'3 5.6
2018-Jul-05 05:30N 44°01' E 028°50'4 7.3
2018-Jul-05 05:01N 43°58' E 028°51'5 9.1
2018-Jul-05 04:30N 43°53' E 028°52'4 9.0
2018-Jul-05 04:00N 43°49' E 028°53'5 9.2
2018-Jul-05 03:30N 43°44' E 028°53'5 9.2
2018-Jul-05 03:00N 43°39' E 028°54'5 9.0
2018-Jul-05 02:27N 43°34' E 028°55'4 8.9
2018-Jul-05 01:59N 43°30' E 028°55'5 9.1
2018-Jul-05 01:24N 43°25' E 028°56'4 9.5
2018-Jul-05 00:59N 43°21' E 028°57'5 9.6
2018-Jul-05 00:30N 43°16' E 028°57'5 9.5
2018-Jul-05 00:00N 43°12' E 028°58'5 9.3
2018-Jul-04 23:30N 43°07' E 028°59'5 9.1
2018-Jul-04 23:00N 43°03' E 028°59'5 9.3
2018-Jul-04 22:30N 42°58' E 028°60'5 9.4
2018-Jul-04 22:00N 42°53' E 029°01'6 9.4
2018-Jul-04 21:19N 42°47' E 029°02'3 9.2
2018-Jul-04 20:59N 42°44' E 029°02'4 9.2
2018-Jul-04 20:30N 42°39' E 029°03'6 9.2
2018-Jul-04 19:54N 42°34' E 029°03'7 9.0
2018-Jul-04 19:06N 42°27' E 029°04'1 8.9
2018-Jul-04 19:00N 42°26' E 029°04'11 8.8
2018-Jul-04 17:46N 42°15' E 029°06'2 9.1
2018-Jul-04 17:30N 42°13' E 029°07'22 9.4
2018-Jul-04 15:10N 41°51' E 029°09'2 9.7
2018-Jul-04 15:00N 41°49' E 029°09'5 9.7
2018-Jul-04 14:29N 41°44' E 029°10'5 9.7
2018-Jul-04 13:58N 41°39' E 029°11'7 9.4
2018-Jul-04 13:14N 41°32' E 029°12'3 9.2
2018-Jul-04 12:57N 41°30' E 029°12'4 9.0
2018-Jul-04 12:30N 41°26' E 029°12'10 8.6
2018-Jul-04 11:22N 41°16' E 029°11'3 8.7
2018-Jul-04 10:59N 41°14' E 029°08'18 0.5
2018-Jul-02 22:44N 40°59' E 028°55'  
Track history (hours):
 
Tides and Currents Weather Stations Pressure Air Temp Water Temp Dewpoint Dewpoint Depression Visibility Wind Speed Wind Dir Waves Ship Positions

Coral

Last reported at 2018-Jul-11 03:36 UTC. Time now 2018-Jul-21 11:28 UTC.
Position N 45°31' E 036°48'.
Warning: this ship's position is 10 days out of date.

Length 108 m; draft 3 m.

Type: Ship. MMSI: 273427610.

Date/timePositionNaut miles runAvg speedWind from/ knotsBaromVisibWave heightAir tempDewpointWater temp
2018-Jul-11 03:36N 45°31' E 036°48'2 8.8
2018-Jul-11 03:26N 45°29' E 036°47'4 8.4
2018-Jul-11 03:00N 45°26' E 036°44'4 8.4
2018-Jul-11 02:30N 45°23' E 036°40'3 6.7
2018-Jul-11 02:00N 45°20' E 036°38'7 6.4
2018-Jul-11 00:57N 45°17' E 036°29'307 7.5
2018-Jul-09 08:12N 44°06' E 029°30'2 8.5
2018-Jul-09 07:56N 44°06' E 029°27'4 8.6
2018-Jul-09 07:28N 44°05' E 029°21'4 8.3
2018-Jul-09 07:01N 44°05' E 029°16'4 8.4
2018-Jul-09 06:30N 44°05' E 029°10'4 8.4
2018-Jul-09 06:00N 44°05' E 029°04'4 8.5
2018-Jul-09 05:31N 44°06' E 028°58'4 8.4
2018-Jul-09 05:01N 44°05' E 028°52'4 8.5
2018-Jul-09 04:30N 44°05' E 028°46'4 7.7
2018-Jul-09 04:01N 44°07' E 028°41'3 5.4
2018-Jul-09 03:31N 44°09' E 028°39'0 0.0
2018-Jul-09 03:01N 44°09' E 028°39'0 0.0
2018-Jul-09 02:30N 44°09' E 028°39'0 0.0
2018-Jul-09 02:00N 44°09' E 028°39'0 0.0
2018-Jul-09 01:31N 44°09' E 028°39'0 0.0
2018-Jul-09 01:00N 44°09' E 028°39'0 0.0
2018-Jul-09 00:30N 44°09' E 028°39'0 0.0
2018-Jul-08 23:59N 44°09' E 028°39'0 0.0
2018-Jul-08 23:29N 44°09' E 028°39'0 0.0
2018-Jul-08 22:59N 44°09' E 028°39'0 0.0
2018-Jul-08 22:29N 44°09' E 028°39'0 0.0
2018-Jul-08 21:53N 44°09' E 028°39'0 0.0
2018-Jul-08 21:29N 44°09' E 028°39'0 0.0
2018-Jul-08 20:59N 44°09' E 028°39'0 0.0
2018-Jul-08 20:29N 44°09' E 028°39'0 0.0
2018-Jul-08 19:59N 44°09' E 028°39'0 0.0
2018-Jul-08 19:29N 44°09' E 028°39'0 0.0
2018-Jul-08 18:59N 44°09' E 028°39'0 0.0
2018-Jul-08 18:29N 44°09' E 028°39'0 0.0
2018-Jul-08 17:59N 44°09' E 028°39'0 0.0
2018-Jul-08 17:29N 44°09' E 028°39'0 0.0
2018-Jul-08 16:59N 44°09' E 028°39'0 0.0
2018-Jul-08 16:29N 44°09' E 028°39'0 0.0
2018-Jul-08 15:59N 44°09' E 028°39'0 0.0
2018-Jul-08 15:29N 44°09' E 028°39'0 0.0
2018-Jul-08 14:59N 44°09' E 028°39'0 0.0
2018-Jul-08 14:29N 44°09' E 028°39'0 0.0
2018-Jul-08 13:59N 44°09' E 028°39'0 0.0
2018-Jul-08 13:29N 44°09' E 028°39'0 0.0
2018-Jul-08 12:56N 44°09' E 028°39'0 0.0
2018-Jul-08 12:29N 44°09' E 028°39'0 0.0
2018-Jul-08 11:59N 44°09' E 028°39'0 0.0
2018-Jul-08 11:29N 44°09' E 028°39'0 0.0
2018-Jul-08 10:59N 44°09' E 028°39'0 0.0
2018-Jul-08 10:26N 44°09' E 028°39'0 0.0
2018-Jul-08 09:59N 44°09' E 028°39'0 0.0
2018-Jul-08 09:29N 44°09' E 028°39'0 0.0
2018-Jul-08 08:59N 44°09' E 028°39'0 0.0
2018-Jul-08 08:29N 44°09' E 028°39'0 0.0
2018-Jul-08 07:59N 44°09' E 028°39'0 0.0
2018-Jul-08 07:29N 44°09' E 028°39'0 0.0
2018-Jul-08 06:59N 44°09' E 028°39'0 0.0
2018-Jul-08 06:29N 44°09' E 028°39'0 0.0
2018-Jul-08 05:59N 44°09' E 028°39'0 0.0
2018-Jul-08 05:29N 44°09' E 028°39'0 0.0
2018-Jul-08 04:59N 44°09' E 028°39'0 0.0
2018-Jul-08 04:29N 44°09' E 028°39'0 0.0
2018-Jul-08 03:56N 44°09' E 028°39'0 0.0
2018-Jul-08 03:29N 44°09' E 028°39'0 0.0
2018-Jul-08 02:59N 44°09' E 028°39'0 0.0
2018-Jul-08 02:29N 44°09' E 028°39'0 0.0
2018-Jul-08 01:59N 44°09' E 028°39'0 0.0
2018-Jul-08 01:29N 44°09' E 028°39'0 0.0
2018-Jul-08 00:59N 44°09' E 028°39'0 0.0
2018-Jul-08 00:29N 44°09' E 028°39'0 0.0
2018-Jul-07 23:59N 44°09' E 028°39'0 0.0
2018-Jul-07 23:29N 44°09' E 028°39'0 0.0
2018-Jul-07 22:59N 44°09' E 028°39'0 0.0
2018-Jul-07 22:29N 44°09' E 028°39'0 0.0
2018-Jul-07 21:59N 44°09' E 028°39'0 0.0
2018-Jul-07 21:29N 44°09' E 028°39'0 0.0
2018-Jul-07 20:59N 44°09' E 028°39'0 0.0
2018-Jul-07 20:29N 44°09' E 028°39'0 0.0
2018-Jul-07 19:59N 44°09' E 028°39'0 0.0
2018-Jul-07 19:29N 44°09' E 028°39'0 0.0
2018-Jul-07 18:59N 44°09' E 028°39'0 0.0
2018-Jul-07 18:29N 44°09' E 028°39'0 0.0
2018-Jul-07 17:59N 44°09' E 028°39'0 0.0
2018-Jul-07 17:29N 44°09' E 028°39'0 0.0
2018-Jul-07 16:59N 44°09' E 028°39'0 0.0
2018-Jul-07 16:29N 44°09' E 028°39'0 0.0
2018-Jul-07 15:59N 44°09' E 028°39'0 0.0
2018-Jul-07 15:29N 44°09' E 028°39'0 0.0
2018-Jul-07 14:59N 44°09' E 028°39'0 0.0
2018-Jul-07 14:29N 44°09' E 028°39'0 0.0
2018-Jul-07 13:59N 44°09' E 028°39'0 0.0
2018-Jul-07 13:28N 44°09' E 028°39'0 0.0
2018-Jul-07 12:59N 44°09' E 028°39'0 0.0
2018-Jul-07 12:28N 44°09' E 028°39'0 0.0
2018-Jul-07 11:58N 44°09' E 028°39'0 0.0
2018-Jul-07 11:28N 44°09' E 028°39'0 0.0
2018-Jul-07 10:58N 44°09' E 028°39'0 0.0
2018-Jul-07 10:29N 44°09' E 028°39'0 0.0
2018-Jul-07 09:58N 44°09' E 028°39'0 0.0
2018-Jul-07 09:28N 44°09' E 028°39'0 0.0
2018-Jul-07 08:59N 44°09' E 028°39'0 0.0
2018-Jul-07 08:29N 44°09' E 028°39'0 0.0
2018-Jul-07 07:59N 44°09' E 028°39'0 0.0
2018-Jul-07 07:28N 44°09' E 028°39'0 0.0
2018-Jul-07 06:58N 44°09' E 028°39'0 0.0
2018-Jul-07 06:28N 44°09' E 028°39'0 0.0
2018-Jul-07 05:59N 44°09' E 028°39'0 0.0
2018-Jul-07 05:25N 44°09' E 028°39'0 0.0
2018-Jul-07 04:58N 44°09' E 028°39'0 0.0
2018-Jul-07 04:29N 44°09' E 028°39'0 0.0
2018-Jul-07 03:59N 44°09' E 028°39'0 0.0
2018-Jul-07 03:29N 44°09' E 028°39'0 0.0
2018-Jul-07 02:58N 44°09' E 028°39'0 0.0
2018-Jul-07 02:29N 44°09' E 028°39'0 0.0
2018-Jul-07 01:58N 44°09' E 028°39'0 0.0
2018-Jul-07 01:28N 44°09' E 028°39'0 0.0
2018-Jul-07 00:59N 44°09' E 028°39'0 0.0
2018-Jul-07 00:29N 44°09' E 028°39'0 0.0
2018-Jul-06 23:58N 44°09' E 028°39'0 0.0
2018-Jul-06 23:28N 44°09' E 028°39'0 0.0
2018-Jul-06 22:58N 44°09' E 028°39'0 0.0
2018-Jul-06 22:28N 44°09' E 028°39'0 0.0
2018-Jul-06 21:59N 44°09' E 028°39'0 0.0
2018-Jul-06 21:29N 44°09' E 028°39'0 0.0
2018-Jul-06 20:58N 44°09' E 028°39'0 0.0
2018-Jul-06 20:28N 44°09' E 028°39'0 0.0
2018-Jul-06 19:58N 44°09' E 028°39'0 0.0
2018-Jul-06 19:29N 44°09' E 028°39'0 0.0
2018-Jul-06 18:59N 44°09' E 028°39'0 0.0
2018-Jul-06 18:29N 44°09' E 028°39'0 0.0
2018-Jul-06 17:59N 44°09' E 028°39'0 0.0
2018-Jul-06 17:29N 44°09' E 028°39'0 0.0
2018-Jul-06 16:59N 44°09' E 028°39'0 0.0
2018-Jul-06 16:29N 44°09' E 028°39'0 0.0
2018-Jul-06 15:59N 44°09' E 028°39'0 0.0
2018-Jul-06 15:29N 44°09' E 028°39'0 0.0
2018-Jul-06 14:58N 44°09' E 028°39'0 0.0
2018-Jul-06 14:29N 44°09' E 028°39'0 0.0
2018-Jul-06 13:58N 44°09' E 028°39'0 0.0
2018-Jul-06 13:29N 44°09' E 028°39'0 0.0
2018-Jul-06 12:58N 44°09' E 028°39'0 0.0
2018-Jul-06 12:28N 44°09' E 028°39'0 0.0
2018-Jul-06 11:59N 44°09' E 028°39'0 0.0
2018-Jul-06 11:29N 44°09' E 028°39'0 0.0
2018-Jul-06 10:58N 44°09' E 028°39'0 0.0
2018-Jul-06 10:29N 44°09' E 028°39'0 0.0
2018-Jul-06 09:59N 44°09' E 028°39'0 0.0
2018-Jul-06 09:29N 44°09' E 028°39'0 0.0
2018-Jul-06 08:58N 44°09' E 028°39'0 0.0
2018-Jul-06 08:29N 44°09' E 028°39'0 0.0
2018-Jul-06 07:59N 44°09' E 028°39'0 0.0
2018-Jul-06 07:29N 44°09' E 028°39'0 0.0
2018-Jul-06 06:59N 44°09' E 028°39'0 0.0
2018-Jul-06 06:29N 44°09' E 028°39'0 0.0
2018-Jul-06 05:58N 44°09' E 028°39'0 0.0
2018-Jul-06 05:25N 44°09' E 028°39'0 0.0
2018-Jul-06 04:58N 44°09' E 028°39'0 0.0
2018-Jul-06 04:29N 44°09' E 028°39'0 0.0
2018-Jul-06 03:59N 44°09' E 028°39'0 0.0
2018-Jul-06 03:29N 44°09' E 028°39'0 0.0
2018-Jul-06 02:59N 44°09' E 028°39'0 0.0
2018-Jul-06 02:29N 44°09' E 028°39'0 0.0
2018-Jul-06 01:58N 44°09' E 028°39'0 0.0
2018-Jul-06 01:29N 44°09' E 028°39'0 0.0
2018-Jul-06 00:59N 44°09' E 028°39'0 0.0
2018-Jul-06 00:29N 44°09' E 028°39'0 0.0
2018-Jul-05 23:58N 44°09' E 028°39'0 0.0
2018-Jul-05 23:29N 44°09' E 028°39'0 0.0
2018-Jul-05 22:58N 44°09' E 028°39'0 0.0
2018-Jul-05 22:28N 44°09' E 028°39'0 0.0
2018-Jul-05 21:59N 44°09' E 028°39'0 0.0
2018-Jul-05 21:29N 44°09' E 028°39'0 0.0
2018-Jul-05 20:58N 44°09' E 028°39'0 0.0
2018-Jul-05 20:29N 44°09' E 028°39'0 0.0
2018-Jul-05 19:59N 44°09' E 028°39'0 0.0
2018-Jul-05 19:29N 44°09' E 028°39'0 0.0
2018-Jul-05 18:59N 44°09' E 028°39'0 0.0
2018-Jul-05 18:29N 44°09' E 028°39'0 0.0
2018-Jul-05 17:58N 44°09' E 028°39'0 0.0
2018-Jul-05 17:29N 44°09' E 028°39'0 0.0
2018-Jul-05 16:59N 44°09' E 028°39'0 0.0
2018-Jul-05 16:28N 44°09' E 028°39'0 0.0
2018-Jul-05 15:59N 44°09' E 028°39'0 0.0
2018-Jul-05 15:28N 44°09' E 028°39'0 0.0
2018-Jul-05 14:59N 44°09' E 028°39'0 0.0
2018-Jul-05 14:29N 44°09' E 028°39'0 0.0
2018-Jul-05 13:29N 44°09' E 028°39'0 0.0
2018-Jul-05 12:58N 44°09' E 028°39'1 1.8
2018-Jul-05 12:30N 44°09' E 028°40'4 7.8
2018-Jul-05 12:00N 44°06' E 028°43'2 3.9
2018-Jul-05 11:30N 44°06' E 028°46'0 0.9
2018-Jul-05 11:00N 44°05' E 028°45'1 2.6
2018-Jul-05 10:30N 44°07' E 028°44'1 2.3
2018-Jul-05 10:00N 44°08' E 028°44'1 2.2
2018-Jul-05 09:29N 44°08' E 028°45'4 7.5
2018-Jul-05 09:00N 44°06' E 028°49'5 9.2
2018-Jul-05 08:30N 44°04' E 028°56'1 1.9
2018-Jul-05 08:00N 44°03' E 028°56'0 0.8
2018-Jul-05 07:30N 44°03' E 028°57'0 0.8
2018-Jul-05 07:00N 44°03' E 028°57'0 0.7
2018-Jul-05 06:31N 44°02' E 028°56'2 4.4
2018-Jul-05 06:01N 44°02' E 028°53'3 5.6
2018-Jul-05 05:30N 44°01' E 028°50'4 7.3
2018-Jul-05 05:01N 43°58' E 028°51'5 9.1
2018-Jul-05 04:30N 43°53' E 028°52'4 9.0
2018-Jul-05 04:00N 43°49' E 028°53'5 9.2
2018-Jul-05 03:30N 43°44' E 028°53'5 9.2
2018-Jul-05 03:00N 43°39' E 028°54'5 9.0
2018-Jul-05 02:27N 43°34' E 028°55'4 8.9
2018-Jul-05 01:59N 43°30' E 028°55'5 9.1
2018-Jul-05 01:24N 43°25' E 028°56'4 9.5
2018-Jul-05 00:59N 43°21' E 028°57'5 9.6
2018-Jul-05 00:30N 43°16' E 028°57'5 9.5
2018-Jul-05 00:00N 43°12' E 028°58'5 9.3
2018-Jul-04 23:30N 43°07' E 028°59'5 9.1
2018-Jul-04 23:00N 43°03' E 028°59'5 9.3
2018-Jul-04 22:30N 42°58' E 028°60'5 9.4
2018-Jul-04 22:00N 42°53' E 029°01'6 9.4
2018-Jul-04 21:19N 42°47' E 029°02'3 9.2
2018-Jul-04 20:59N 42°44' E 029°02'4 9.2
2018-Jul-04 20:30N 42°39' E 029°03'6 9.2
2018-Jul-04 19:54N 42°34' E 029°03'7 9.0
2018-Jul-04 19:06N 42°27' E 029°04'1 8.9
2018-Jul-04 19:00N 42°26' E 029°04'11 8.8
2018-Jul-04 17:46N 42°15' E 029°06'2 9.1
2018-Jul-04 17:30N 42°13' E 029°07'22 9.4
2018-Jul-04 15:10N 41°51' E 029°09'2 9.7
2018-Jul-04 15:00N 41°49' E 029°09'5 9.7
2018-Jul-04 14:29N 41°44' E 029°10'5 9.7
2018-Jul-04 13:58N 41°39' E 029°11'7 9.4
2018-Jul-04 13:14N 41°32' E 029°12'3 9.2
2018-Jul-04 12:57N 41°30' E 029°12'4 9.0
2018-Jul-04 12:30N 41°26' E 029°12'10 8.6
2018-Jul-04 11:22N 41°16' E 029°11'3 8.7
2018-Jul-04 10:59N 41°14' E 029°08'18 0.5
2018-Jul-02 22:44N 40°59' E 028°55'  

Dump ship's entire track history